sensor_id;sensor_type;location;lat;lon;timestamp;pressure;altitude;pressure_sealevel;temperature;humidity
6200;BME280;3133;43.214;27.906;2022-12-10T00:02:25;100125.81;;;13.10;100.00
6200;BME280;3133;43.214;27.906;2022-12-10T00:04:54;100120.56;;;13.12;100.00
6200;BME280;3133;43.214;27.906;2022-12-10T00:07:20;100101.50;;;13.05;100.00
6200;BME280;3133;43.214;27.906;2022-12-10T00:09:47;100086.91;;;12.87;100.00
6200;BME280;3133;43.214;27.906;2022-12-10T00:12:14;100071.44;;;12.75;100.00
6200;BME280;3133;43.214;27.906;2022-12-10T00:14:41;100120.72;;;12.99;100.00
6200;BME280;3133;43.214;27.906;2022-12-10T00:17:08;100097.41;;;12.86;100.00
6200;BME280;3133;43.214;27.906;2022-12-10T00:19:34;100081.91;;;12.75;100.00
6200;BME280;3133;43.214;27.906;2022-12-10T00:22:03;100080.19;;;12.73;100.00
6200;BME280;3133;43.214;27.906;2022-12-10T00:24:29;100098.41;;;12.79;100.00
6200;BME280;3133;43.214;27.906;2022-12-10T00:26:56;100088.06;;;12.70;100.00
6200;BME280;3133;43.214;27.906;2022-12-10T00:29:23;100094.97;;;12.75;100.00
6200;BME280;3133;43.214;27.906;2022-12-10T00:31:50;100091.56;;;12.70;100.00
6200;BME280;3133;43.214;27.906;2022-12-10T00:34:17;100088.00;;;12.74;100.00
6200;BME280;3133;43.214;27.906;2022-12-10T00:36:46;100090.66;;;12.71;100.00
6200;BME280;3133;43.214;27.906;2022-12-10T00:39:16;100076.88;;;12.62;100.00
6200;BME280;3133;43.214;27.906;2022-12-10T00:41:44;100092.53;;;12.63;100.00
6200;BME280;3133;43.214;27.906;2022-12-10T00:44:11;100082.97;;;12.62;100.00
6200;BME280;3133;43.214;27.906;2022-12-10T00:46:38;100080.53;;;12.52;100.00
6200;BME280;3133;43.214;27.906;2022-12-10T00:49:05;100080.38;;;12.59;100.00
6200;BME280;3133;43.214;27.906;2022-12-10T00:51:32;100083.06;;;12.56;100.00
6200;BME280;3133;43.214;27.906;2022-12-10T00:53:59;100060.53;;;12.46;100.00
6200;BME280;3133;43.214;27.906;2022-12-10T00:56:29;100067.38;;;12.56;100.00
6200;BME280;3133;43.214;27.906;2022-12-10T00:58:58;100053.53;;;12.48;100.00
6200;BME280;3133;43.214;27.906;2022-12-10T01:01:28;100054.38;;;12.50;100.00
6200;BME280;3133;43.214;27.906;2022-12-10T01:04:01;100059.59;;;12.52;100.00
6200;BME280;3133;43.214;27.906;2022-12-10T01:06:30;100061.28;;;12.54;100.00
6200;BME280;3133;43.214;27.906;2022-12-10T01:08:59;100057.88;;;12.48;100.00
6200;BME280;3133;43.214;27.906;2022-12-10T01:11:29;100063.13;;;12.48;100.00
6200;BME280;3133;43.214;27.906;2022-12-10T01:13:57;100058.75;;;12.50;100.00
6200;BME280;3133;43.214;27.906;2022-12-10T01:16:25;100056.97;;;12.50;100.00
6200;BME280;3133;43.214;27.906;2022-12-10T01:18:52;100039.69;;;12.43;100.00
6200;BME280;3133;43.214;27.906;2022-12-10T01:21:20;100058.72;;;12.51;100.00
6200;BME280;3133;43.214;27.906;2022-12-10T01:23:48;100035.34;;;12.41;100.00
6200;BME280;3133;43.214;27.906;2022-12-10T01:26:17;100033.63;;;12.40;100.00
6200;BME280;3133;43.214;27.906;2022-12-10T01:28:46;100043.97;;;12.47;100.00
6200;BME280;3133;43.214;27.906;2022-12-10T01:31:15;100040.44;;;12.50;100.00
6200;BME280;3133;43.214;27.906;2022-12-10T01:33:42;100041.22;;;12.55;100.00
6200;BME280;3133;43.214;27.906;2022-12-10T01:36:11;100036.84;;;12.57;100.00
6200;BME280;3133;43.214;27.906;2022-12-10T01:38:39;100023.81;;;12.52;100.00
6200;BME280;3133;43.214;27.906;2022-12-10T01:41:07;100020.38;;;12.50;100.00
6200;BME280;3133;43.214;27.906;2022-12-10T01:43:55;100030.78;;;12.53;100.00
6200;BME280;3133;43.214;27.906;2022-12-10T01:46:23;100023.78;;;12.55;100.00
6200;BME280;3133;43.214;27.906;2022-12-10T01:48:51;100021.16;;;12.55;100.00
6200;BME280;3133;43.214;27.906;2022-12-10T01:51:19;100001.22;;;12.48;100.00
6200;BME280;3133;43.214;27.906;2022-12-10T01:53:46;100022.00;;;12.57;100.00
6200;BME280;3133;43.214;27.906;2022-12-10T01:56:17;100009.84;;;12.56;100.00
6200;BME280;3133;43.214;27.906;2022-12-10T01:58:44;100008.94;;;12.57;100.00
6200;BME280;3133;43.214;27.906;2022-12-10T02:01:24;99998.63;;;12.48;100.00
6200;BME280;3133;43.214;27.906;2022-12-10T02:04:07;100001.09;;;12.57;100.00
6200;BME280;3133;43.214;27.906;2022-12-10T02:06:45;99996.78;;;12.53;100.00
6200;BME280;3133;43.214;27.906;2022-12-10T02:09:20;99994.06;;;12.59;100.00
6200;BME280;3133;43.214;27.906;2022-12-10T02:11:59;99993.94;;;12.68;100.00
6200;BME280;3133;43.214;27.906;2022-12-10T02:14:32;99993.84;;;12.71;100.00
6200;BME280;3133;43.214;27.906;2022-12-10T02:17:07;99967.91;;;12.59;100.00
6200;BME280;3133;43.214;27.906;2022-12-10T02:19:49;99979.13;;;12.66;100.00
6200;BME280;3133;43.214;27.906;2022-12-10T02:22:19;99980.78;;;12.73;100.00
6200;BME280;3133;43.214;27.906;2022-12-10T02:24:48;99970.53;;;12.59;100.00
6200;BME280;3133;43.214;27.906;2022-12-10T02:27:23;99984.25;;;12.72;100.00
6200;BME280;3133;43.214;27.906;2022-12-10T02:29:54;99918.72;;;12.32;100.00
6200;BME280;3133;43.214;27.906;2022-12-10T02:32:24;99986.03;;;12.70;100.00
6200;BME280;3133;43.214;27.906;2022-12-10T02:34:54;99986.19;;;12.61;100.00
6200;BME280;3133;43.214;27.906;2022-12-10T02:37:24;99980.16;;;12.57;100.00
6200;BME280;3133;43.214;27.906;2022-12-10T02:39:55;99982.91;;;12.48;100.00
6200;BME280;3133;43.214;27.906;2022-12-10T02:42:24;99951.91;;;12.27;100.00
6200;BME280;3133;43.214;27.906;2022-12-10T02:44:54;99988.22;;;12.45;100.00
6200;BME280;3133;43.214;27.906;2022-12-10T02:47:23;99971.78;;;12.37;100.00
6200;BME280;3133;43.214;27.906;2022-12-10T02:49:53;99964.94;;;12.30;100.00
6200;BME280;3133;43.214;27.906;2022-12-10T02:52:23;99983.91;;;12.43;100.00
6200;BME280;3133;43.214;27.906;2022-12-10T02:54:50;99957.94;;;12.32;100.00
6200;BME280;3133;43.214;27.906;2022-12-10T02:57:29;99966.53;;;12.39;100.00
6200;BME280;3133;43.214;27.906;2022-12-10T03:00:09;99969.03;;;12.45;100.00
6200;BME280;3133;43.214;27.906;2022-12-10T03:02:51;99968.09;;;12.49;100.00
6200;BME280;3133;43.214;27.906;2022-12-10T03:05:23;99956.81;;;12.47;100.00
6200;BME280;3133;43.214;27.906;2022-12-10T03:07:56;99966.28;;;12.52;100.00
6200;BME280;3133;43.214;27.906;2022-12-10T03:10:28;99942.78;;;12.51;100.00
6200;BME280;3133;43.214;27.906;2022-12-10T03:12:59;99954.84;;;12.59;100.00
6200;BME280;3133;43.214;27.906;2022-12-10T03:15:32;99957.41;;;12.62;100.00
6200;BME280;3133;43.214;27.906;2022-12-10T03:18:01;99953.91;;;12.63;100.00
6200;BME280;3133;43.214;27.906;2022-12-10T03:20:30;99949.66;;;12.58;100.00
6200;BME280;3133;43.214;27.906;2022-12-10T03:22:59;99964.34;;;12.63;100.00
6200;BME280;3133;43.214;27.906;2022-12-10T03:25:28;99966.91;;;12.68;100.00
6200;BME280;3133;43.214;27.906;2022-12-10T03:27:59;99966.78;;;12.74;100.00
6200;BME280;3133;43.214;27.906;2022-12-10T03:30:29;99967.63;;;12.77;100.00
6200;BME280;3133;43.214;27.906;2022-12-10T03:32:59;99939.88;;;12.67;100.00
6200;BME280;3133;43.214;27.906;2022-12-10T03:35:26;99958.72;;;12.84;100.00
6200;BME280;3133;43.214;27.906;2022-12-10T03:37:53;99957.84;;;12.85;100.00
6200;BME280;3133;43.214;27.906;2022-12-10T03:40:22;99957.94;;;12.81;100.00
6200;BME280;3133;43.214;27.906;2022-12-10T03:42:50;99950.97;;;12.81;100.00
6200;BME280;3133;43.214;27.906;2022-12-10T03:45:17;99939.72;;;12.76;100.00
6200;BME280;3133;43.214;27.906;2022-12-10T03:47:45;99932.81;;;12.72;100.00
6200;BME280;3133;43.214;27.906;2022-12-10T03:50:14;99929.44;;;12.66;100.00
6200;BME280;3133;43.214;27.906;2022-12-10T03:52:41;99940.66;;;12.72;100.00
6200;BME280;3133;43.214;27.906;2022-12-10T03:55:08;99938.13;;;12.68;100.00
6200;BME280;3133;43.214;27.906;2022-12-10T03:57:35;99949.41;;;12.70;100.00
6200;BME280;3133;43.214;27.906;2022-12-10T04:00:05;99935.47;;;12.71;100.00
6200;BME280;3133;43.214;27.906;2022-12-10T04:02:32;99934.63;;;12.69;100.00
6200;BME280;3133;43.214;27.906;2022-12-10T04:05:01;99927.66;;;12.68;100.00
6200;BME280;3133;43.214;27.906;2022-12-10T04:07:28;99927.63;;;12.69;100.00
6200;BME280;3133;43.214;27.906;2022-12-10T04:09:54;99928.41;;;12.74;100.00
6200;BME280;3133;43.214;27.906;2022-12-10T04:12:21;99878.41;;;12.44;100.00
6200;BME280;3133;43.214;27.906;2022-12-10T04:14:48;99928.44;;;12.71;100.00
6200;BME280;3133;43.214;27.906;2022-12-10T04:17:33;99925.13;;;12.63;100.00
6200;BME280;3133;43.214;27.906;2022-12-10T04:20:02;99939.00;;;12.68;100.00
6200;BME280;3133;43.214;27.906;2022-12-10T04:22:29;99946.00;;;12.66;100.00
6200;BME280;3133;43.214;27.906;2022-12-10T04:25:27;99933.69;;;12.71;100.00
6200;BME280;3133;43.214;27.906;2022-12-10T04:28:11;99934.63;;;12.67;100.00
6200;BME280;3133;43.214;27.906;2022-12-10T04:30:38;99905.16;;;12.59;100.00
6200;BME280;3133;43.214;27.906;2022-12-10T04:33:06;99931.06;;;12.71;100.00
6200;BME280;3133;43.214;27.906;2022-12-10T04:35:34;99920.69;;;12.68;100.00
6200;BME280;3133;43.214;27.906;2022-12-10T04:38:01;99923.13;;;12.76;100.00
6200;BME280;3133;43.214;27.906;2022-12-10T04:40:28;99926.59;;;12.79;100.00
6200;BME280;3133;43.214;27.906;2022-12-10T04:42:54;99934.34;;;12.82;100.00
6200;BME280;3133;43.214;27.906;2022-12-10T04:45:21;99920.44;;;12.82;100.00
6200;BME280;3133;43.214;27.906;2022-12-10T04:47:48;99932.47;;;12.90;100.00
6200;BME280;3133;43.214;27.906;2022-12-10T04:50:17;99924.59;;;12.92;100.00
6200;BME280;3133;43.214;27.906;2022-12-10T04:52:45;99913.34;;;12.88;100.00
6200;BME280;3133;43.214;27.906;2022-12-10T04:55:12;99914.16;;;12.90;100.00
6200;BME280;3133;43.214;27.906;2022-12-10T04:57:39;99916.66;;;12.95;100.00
6200;BME280;3133;43.214;27.906;2022-12-10T05:00:07;99937.31;;;13.12;100.00
6200;BME280;3133;43.214;27.906;2022-12-10T05:02:35;99921.66;;;13.08;100.00
6200;BME280;3133;43.214;27.906;2022-12-10T05:05:01;99944.13;;;13.20;100.00
6200;BME280;3133;43.214;27.906;2022-12-10T05:07:28;99939.69;;;13.24;100.00
6200;BME280;3133;43.214;27.906;2022-12-10T05:09:56;99929.25;;;13.22;100.00
6200;BME280;3133;43.214;27.906;2022-12-10T05:12:23;99911.16;;;13.12;100.00
6200;BME280;3133;43.214;27.906;2022-12-10T05:14:50;99941.38;;;13.26;100.00
6200;BME280;3133;43.214;27.906;2022-12-10T05:17:17;99872.72;;;12.68;100.00
6200;BME280;3133;43.214;27.906;2022-12-10T05:19:44;99947.09;;;13.00;100.00
6200;BME280;3133;43.214;27.906;2022-12-10T05:22:11;99942.75;;;13.01;100.00
6200;BME280;3133;43.214;27.906;2022-12-10T05:24:55;99957.47;;;13.06;100.00
6200;BME280;3133;43.214;27.906;2022-12-10T05:27:23;99942.13;;;12.87;100.00
6200;BME280;3133;43.214;27.906;2022-12-10T05:29:50;99955.78;;;12.55;100.00
6200;BME280;3133;43.214;27.906;2022-12-10T05:32:17;99956.66;;;12.56;100.00
6200;BME280;3133;43.214;27.906;2022-12-10T05:34:43;99959.38;;;12.48;100.00
6200;BME280;3133;43.214;27.906;2022-12-10T05:37:10;99953.91;;;12.10;100.00
6200;BME280;3133;43.214;27.906;2022-12-10T05:39:37;99950.50;;;12.05;100.00
6200;BME280;3133;43.214;27.906;2022-12-10T05:42:04;99948.59;;;12.17;100.00
6200;BME280;3133;43.214;27.906;2022-12-10T05:44:32;99933.81;;;12.15;100.00
6200;BME280;3133;43.214;27.906;2022-12-10T05:46:59;99947.63;;;12.23;100.00
6200;BME280;3133;43.214;27.906;2022-12-10T05:49:26;99955.31;;;12.32;100.00
6200;BME280;3133;43.214;27.906;2022-12-10T05:51:54;99959.63;;;12.33;100.00
6200;BME280;3133;43.214;27.906;2022-12-10T05:54:21;99964.03;;;12.31;100.00
6200;BME280;3133;43.214;27.906;2022-12-10T05:56:48;99933.84;;;12.12;100.00
6200;BME280;3133;43.214;27.906;2022-12-10T05:59:15;99967.47;;;12.33;100.00
6200;BME280;3133;43.214;27.906;2022-12-10T06:01:43;99958.75;;;12.34;100.00
6200;BME280;3133;43.214;27.906;2022-12-10T06:04:11;99952.59;;;12.38;100.00
6200;BME280;3133;43.214;27.906;2022-12-10T06:06:39;99931.06;;;12.24;100.00
6200;BME280;3133;43.214;27.906;2022-12-10T06:09:07;99964.16;;;12.23;100.00
6200;BME280;3133;43.214;27.906;2022-12-10T06:11:37;99957.84;;;12.35;100.00
6200;BME280;3133;43.214;27.906;2022-12-10T06:14:04;99962.16;;;12.39;100.00
6200;BME280;3133;43.214;27.906;2022-12-10T06:16:31;99881.78;;;12.00;100.00
6200;BME280;3133;43.214;27.906;2022-12-10T06:18:59;99953.28;;;12.48;100.00
6200;BME280;3133;43.214;27.906;2022-12-10T06:21:26;99956.00;;;12.43;100.00
6200;BME280;3133;43.214;27.906;2022-12-10T06:23:53;99963.06;;;12.38;100.00
6200;BME280;3133;43.214;27.906;2022-12-10T06:26:21;99933.00;;;12.10;100.00
6200;BME280;3133;43.214;27.906;2022-12-10T06:28:49;99956.25;;;12.28;100.00
6200;BME280;3133;43.214;27.906;2022-12-10T06:31:17;99958.03;;;12.24;100.00
6200;BME280;3133;43.214;27.906;2022-12-10T06:33:44;99938.13;;;12.16;100.00
6200;BME280;3133;43.214;27.906;2022-12-10T06:36:14;99826.72;;;11.55;100.00
6200;BME280;3133;43.214;27.906;2022-12-10T06:38:42;99955.44;;;12.23;100.00
6200;BME280;3133;43.214;27.906;2022-12-10T06:41:11;99905.44;;;11.91;100.00
6200;BME280;3133;43.214;27.906;2022-12-10T06:43:39;99906.19;;;11.99;100.00
6200;BME280;3133;43.214;27.906;2022-12-10T06:46:06;99960.38;;;12.43;100.00
6200;BME280;3133;43.214;27.906;2022-12-10T06:48:34;99962.72;;;12.58;100.00
6200;BME280;3133;43.214;27.906;2022-12-10T06:51:01;99943.53;;;12.57;100.00
6200;BME280;3133;43.214;27.906;2022-12-10T06:53:30;99974.50;;;12.80;100.00
6200;BME280;3133;43.214;27.906;2022-12-10T06:55:58;99969.97;;;12.91;100.00
6200;BME280;3133;43.214;27.906;2022-12-10T06:58:27;99967.13;;;13.03;100.00
6200;BME280;3133;43.214;27.906;2022-12-10T07:00:54;99943.56;;;13.03;100.00
6200;BME280;3133;43.214;27.906;2022-12-10T07:03:28;99905.38;;;12.93;100.00
6200;BME280;3133;43.214;27.906;2022-12-10T07:05:57;99871.59;;;12.81;100.00
6200;BME280;3133;43.214;27.906;2022-12-10T07:08:24;99957.66;;;13.40;100.00
6200;BME280;3133;43.214;27.906;2022-12-10T07:10:52;99904.88;;;13.20;100.00
6200;BME280;3133;43.214;27.906;2022-12-10T07:13:20;99905.53;;;13.30;100.00
6200;BME280;3133;43.214;27.906;2022-12-10T07:15:47;99943.28;;;13.61;100.00
6200;BME280;3133;43.214;27.906;2022-12-10T07:18:18;99917.28;;;13.52;100.00
6200;BME280;3133;43.214;27.906;2022-12-10T07:20:59;99940.22;;;13.79;100.00
6200;BME280;3133;43.214;27.906;2022-12-10T07:23:26;99923.88;;;13.69;100.00
6200;BME280;3133;43.214;27.906;2022-12-10T07:25:55;99938.34;;;13.85;100.00
6200;BME280;3133;43.214;27.906;2022-12-10T07:28:22;99864.94;;;13.49;100.00
6200;BME280;3133;43.214;27.906;2022-12-10T07:30:49;99942.44;;;13.97;100.00
6200;BME280;3133;43.214;27.906;2022-12-10T07:33:17;99812.22;;;13.26;100.00
6200;BME280;3133;43.214;27.906;2022-12-10T07:35:52;99945.47;;;14.17;100.00
6200;BME280;3133;43.214;27.906;2022-12-10T07:38:22;99953.19;;;14.22;100.00
6200;BME280;3133;43.214;27.906;2022-12-10T07:40:49;99946.97;;;14.27;100.00
6200;BME280;3133;43.214;27.906;2022-12-10T07:43:18;99947.66;;;14.35;100.00
6200;BME280;3133;43.214;27.906;2022-12-10T07:45:45;99947.34;;;14.49;100.00
6200;BME280;3133;43.214;27.906;2022-12-10T07:48:13;99947.88;;;14.62;100.00
6200;BME280;3133;43.214;27.906;2022-12-10T07:50:40;99875.69;;;14.45;100.00
6200;BME280;3133;43.214;27.906;2022-12-10T07:53:07;99949.28;;;15.07;100.00
6200;BME280;3133;43.214;27.906;2022-12-10T07:55:34;99944.63;;;15.16;100.00
6200;BME280;3133;43.214;27.906;2022-12-10T07:58:04;99940.13;;;15.21;100.00
6200;BME280;3133;43.214;27.906;2022-12-10T08:00:32;99909.22;;;15.00;100.00
6200;BME280;3133;43.214;27.906;2022-12-10T08:02:59;99937.38;;;15.26;100.00
6200;BME280;3133;43.214;27.906;2022-12-10T08:05:26;99937.25;;;15.29;100.00
6200;BME280;3133;43.214;27.906;2022-12-10T08:08:02;99804.78;;;14.48;100.00
6200;BME280;3133;43.214;27.906;2022-12-10T08:10:29;99937.31;;;15.27;100.00
6200;BME280;3133;43.214;27.906;2022-12-10T08:12:55;99930.22;;;15.31;100.00
6200;BME280;3133;43.214;27.906;2022-12-10T08:15:24;99913.78;;;15.24;100.00
6200;BME280;3133;43.214;27.906;2022-12-10T08:17:55;99934.38;;;15.38;100.00
6200;BME280;3133;43.214;27.906;2022-12-10T08:20:24;99930.75;;;15.42;100.00
6200;BME280;3133;43.214;27.906;2022-12-10T08:22:51;99933.34;;;15.45;100.00
6200;BME280;3133;43.214;27.906;2022-12-10T08:25:18;99930.56;;;15.50;100.00
6200;BME280;3133;43.214;27.906;2022-12-10T08:27:45;99916.75;;;15.43;100.00
6200;BME280;3133;43.214;27.906;2022-12-10T08:30:13;99877.84;;;15.25;100.00
6200;BME280;3133;43.214;27.906;2022-12-10T08:32:45;99844.50;;;14.98;100.00
6200;BME280;3133;43.214;27.906;2022-12-10T08:35:14;99926.31;;;15.46;100.00
6200;BME280;3133;43.214;27.906;2022-12-10T08:37:44;99919.19;;;15.49;100.00
6200;BME280;3133;43.214;27.906;2022-12-10T08:40:12;99915.84;;;15.43;100.00
6200;BME280;3133;43.214;27.906;2022-12-10T08:42:39;99901.09;;;15.38;100.00
6200;BME280;3133;43.214;27.906;2022-12-10T08:45:09;99869.06;;;15.26;100.00
6200;BME280;3133;43.214;27.906;2022-12-10T08:47:39;99906.69;;;15.57;100.00
6200;BME280;3133;43.214;27.906;2022-12-10T08:50:06;99906.47;;;15.65;100.00
6200;BME280;3133;43.214;27.906;2022-12-10T08:52:37;99904.38;;;15.74;100.00
6200;BME280;3133;43.214;27.906;2022-12-10T08:55:08;99812.69;;;15.36;100.00
6200;BME280;3133;43.214;27.906;2022-12-10T08:57:35;99867.66;;;15.73;100.00
6200;BME280;3133;43.214;27.906;2022-12-10T09:00:05;99888.00;;;15.94;100.00
6200;BME280;3133;43.214;27.906;2022-12-10T09:02:36;99891.75;;;16.13;100.00
6200;BME280;3133;43.214;27.906;2022-12-10T09:05:08;99866.50;;;16.07;100.00
6200;BME280;3133;43.214;27.906;2022-12-10T09:07:36;99887.50;;;16.35;100.00
6200;BME280;3133;43.214;27.906;2022-12-10T09:10:06;99887.00;;;16.50;100.00
6200;BME280;3133;43.214;27.906;2022-12-10T09:12:33;99887.59;;;16.58;100.00
6200;BME280;3133;43.214;27.906;2022-12-10T09:15:00;99879.47;;;16.66;100.00
6200;BME280;3133;43.214;27.906;2022-12-10T09:17:27;99867.78;;;16.73;100.00
6200;BME280;3133;43.214;27.906;2022-12-10T09:19:54;99884.81;;;16.88;100.00
6200;BME280;3133;43.214;27.906;2022-12-10T09:22:22;99888.25;;;16.90;100.00
6200;BME280;3133;43.214;27.906;2022-12-10T09:24:50;99891.56;;;16.95;100.00
6200;BME280;3133;43.214;27.906;2022-12-10T09:27:17;99884.44;;;16.98;100.00
6200;BME280;3133;43.214;27.906;2022-12-10T09:29:46;99879.09;;;17.00;100.00
6200;BME280;3133;43.214;27.906;2022-12-10T09:32:14;99859.16;;;16.93;100.00
6200;BME280;3133;43.214;27.906;2022-12-10T09:34:41;99872.75;;;17.05;100.00
6200;BME280;3133;43.214;27.906;2022-12-10T09:37:08;99823.78;;;16.76;100.00
6200;BME280;3133;43.214;27.906;2022-12-10T09:39:44;99862.78;;;17.13;100.00
6200;BME280;3133;43.214;27.906;2022-12-10T09:42:30;99818.56;;;16.98;100.00
6200;BME280;3133;43.214;27.906;2022-12-10T09:45:03;99859.59;;;17.28;100.00
6200;BME280;3133;43.214;27.906;2022-12-10T09:47:37;99860.25;;;17.33;100.00
6200;BME280;3133;43.214;27.906;2022-12-10T09:50:16;99796.47;;;17.02;100.00
6200;BME280;3133;43.214;27.906;2022-12-10T09:52:46;99837.63;;;17.28;100.00
6200;BME280;3133;43.214;27.906;2022-12-10T09:55:17;99846.97;;;17.36;100.00
6200;BME280;3133;43.214;27.906;2022-12-10T09:57:48;99843.47;;;17.36;100.00
6200;BME280;3133;43.214;27.906;2022-12-10T10:00:25;99851.53;;;17.31;100.00
6200;BME280;3133;43.214;27.906;2022-12-10T10:02:56;99839.31;;;17.30;100.00
6200;BME280;3133;43.214;27.906;2022-12-10T10:05:26;99830.00;;;17.20;100.00
6200;BME280;3133;43.214;27.906;2022-12-10T10:07:55;99830.81;;;17.22;100.00
6200;BME280;3133;43.214;27.906;2022-12-10T10:10:26;99821.88;;;17.26;100.00
6200;BME280;3133;43.214;27.906;2022-12-10T10:13:00;99817.41;;;17.28;100.00
6200;BME280;3133;43.214;27.906;2022-12-10T10:15:30;99822.50;;;17.33;100.00
6200;BME280;3133;43.214;27.906;2022-12-10T10:18:04;99797.16;;;17.29;100.00
6200;BME280;3133;43.214;27.906;2022-12-10T10:20:38;99752.13;;;17.13;100.00
6200;BME280;3133;43.214;27.906;2022-12-10T10:23:06;99794.94;;;17.41;100.00
6200;BME280;3133;43.214;27.906;2022-12-10T10:25:35;99792.31;;;17.41;100.00
6200;BME280;3133;43.214;27.906;2022-12-10T10:28:10;99744.06;;;17.18;100.00
6200;BME280;3133;43.214;27.906;2022-12-10T10:30:42;99768.50;;;17.21;100.00
6200;BME280;3133;43.214;27.906;2022-12-10T10:33:12;99782.63;;;17.19;100.00
6200;BME280;3133;43.214;27.906;2022-12-10T10:36:02;99783.22;;;17.04;100.00
6200;BME280;3133;43.214;27.906;2022-12-10T10:38:30;99760.91;;;16.67;100.00
6200;BME280;3133;43.214;27.906;2022-12-10T10:40:59;99757.81;;;16.56;100.00
6200;BME280;3133;43.214;27.906;2022-12-10T10:43:39;99765.66;;;16.81;100.00
6200;BME280;3133;43.214;27.906;2022-12-10T10:46:12;99626.66;;;16.21;100.00
6200;BME280;3133;43.214;27.906;2022-12-10T10:49:13;99754.19;;;17.27;100.00
6200;BME280;3133;43.214;27.906;2022-12-10T10:51:44;99742.06;;;17.44;100.00
6200;BME280;3133;43.214;27.906;2022-12-10T10:54:11;99729.22;;;17.37;100.00
6200;BME280;3133;43.214;27.906;2022-12-10T10:56:57;99679.16;;;17.15;100.00
6200;BME280;3133;43.214;27.906;2022-12-10T10:59:30;99754.91;;;17.53;100.00
6200;BME280;3133;43.214;27.906;2022-12-10T11:02:03;99713.59;;;17.54;100.00
6200;BME280;3133;43.214;27.906;2022-12-10T11:04:37;99751.69;;;17.89;100.00
6200;BME280;3133;43.214;27.906;2022-12-10T11:07:18;99721.03;;;17.86;100.00
6200;BME280;3133;43.214;27.906;2022-12-10T11:09:45;99732.69;;;18.01;100.00
6200;BME280;3133;43.214;27.906;2022-12-10T11:12:28;99714.09;;;18.04;100.00
6200;BME280;3133;43.214;27.906;2022-12-10T11:14:57;99742.03;;;18.28;100.00
6200;BME280;3133;43.214;27.906;2022-12-10T11:17:24;99723.97;;;18.19;100.00
6200;BME280;3133;43.214;27.906;2022-12-10T11:19:58;99745.34;;;18.33;100.00
6200;BME280;3133;43.214;27.906;2022-12-10T11:22:31;99749.50;;;18.38;100.00
6200;BME280;3133;43.214;27.906;2022-12-10T11:24:59;99760.69;;;18.45;100.00
6200;BME280;3133;43.214;27.906;2022-12-10T11:27:38;99748.13;;;18.50;100.00
6200;BME280;3133;43.214;27.906;2022-12-10T11:30:15;99748.72;;;18.57;100.00
6200;BME280;3133;43.214;27.906;2022-12-10T11:33:03;99734.22;;;18.47;100.00
6200;BME280;3133;43.214;27.906;2022-12-10T11:35:42;99728.06;;;18.46;100.00
6200;BME280;3133;43.214;27.906;2022-12-10T11:38:21;99712.22;;;18.46;100.00
6200;BME280;3133;43.214;27.906;2022-12-10T11:40:58;99712.84;;;18.51;100.00
6200;BME280;3133;43.214;27.906;2022-12-10T11:43:38;99675.56;;;18.38;100.00
6200;BME280;3133;43.214;27.906;2022-12-10T11:46:25;99715.50;;;18.51;100.00
6200;BME280;3133;43.214;27.906;2022-12-10T11:49:07;99677.81;;;18.09;100.00
6200;BME280;3133;43.214;27.906;2022-12-10T11:51:40;99723.16;;;18.37;100.00
6200;BME280;3133;43.214;27.906;2022-12-10T11:54:24;99731.22;;;18.54;100.00
6200;BME280;3133;43.214;27.906;2022-12-10T11:57:00;99725.59;;;18.62;100.00
6200;BME280;3133;43.214;27.906;2022-12-10T11:59:34;99683.09;;;18.48;100.00
6200;BME280;3133;43.214;27.906;2022-12-10T12:02:20;99709.25;;;18.72;100.00
6200;BME280;3133;43.214;27.906;2022-12-10T12:05:05;99652.81;;;18.36;100.00
6200;BME280;3133;43.214;27.906;2022-12-10T12:07:41;99686.88;;;18.42;100.00
6200;BME280;3133;43.214;27.906;2022-12-10T12:10:39;99718.31;;;18.67;100.00
6200;BME280;3133;43.214;27.906;2022-12-10T12:13:13;99714.88;;;18.46;100.00
6200;BME280;3133;43.214;27.906;2022-12-10T12:15:45;99728.69;;;18.51;100.00
6200;BME280;3133;43.214;27.906;2022-12-10T12:18:20;99658.75;;;18.02;100.00
6200;BME280;3133;43.214;27.906;2022-12-10T12:20:51;99701.03;;;18.21;100.00
6200;BME280;3133;43.214;27.906;2022-12-10T12:23:24;99629.63;;;17.65;100.00
6200;BME280;3133;43.214;27.906;2022-12-10T12:25:55;99730.09;;;18.19;100.00
6200;BME280;3133;43.214;27.906;2022-12-10T12:28:26;99721.63;;;17.93;100.00
6200;BME280;3133;43.214;27.906;2022-12-10T12:30:59;99730.25;;;17.96;100.00
6200;BME280;3133;43.214;27.906;2022-12-10T12:33:35;99726.72;;;17.97;100.00
6200;BME280;3133;43.214;27.906;2022-12-10T12:36:09;99634.53;;;17.32;100.00
6200;BME280;3133;43.214;27.906;2022-12-10T12:38:43;99651.19;;;17.33;100.00
6200;BME280;3133;43.214;27.906;2022-12-10T12:41:29;99664.31;;;17.34;100.00
6200;BME280;3133;43.214;27.906;2022-12-10T12:44:07;99710.56;;;17.63;100.00
6200;BME280;3133;43.214;27.906;2022-12-10T12:46:40;99660.13;;;17.29;100.00
6200;BME280;3133;43.214;27.906;2022-12-10T12:49:14;99666.59;;;17.00;100.00
6200;BME280;3133;43.214;27.906;2022-12-10T12:51:49;99665.13;;;17.15;100.00
6200;BME280;3133;43.214;27.906;2022-12-10T12:54:18;99660.16;;;17.07;100.00
6200;BME280;3133;43.214;27.906;2022-12-10T12:56:59;99679.59;;;17.26;100.00
6200;BME280;3133;43.214;27.906;2022-12-10T12:59:50;99670.81;;;17.04;100.00
6200;BME280;3133;43.214;27.906;2022-12-10T13:02:26;99667.19;;;16.85;100.00
6200;BME280;3133;43.214;27.906;2022-12-10T13:04:58;99666.03;;;16.70;100.00
6200;BME280;3133;43.214;27.906;2022-12-10T13:07:31;99662.06;;;16.59;100.00
6200;BME280;3133;43.214;27.906;2022-12-10T13:10:23;99645.59;;;16.54;100.00
6200;BME280;3133;43.214;27.906;2022-12-10T13:13:06;99609.44;;;16.13;100.00
6200;BME280;3133;43.214;27.906;2022-12-10T13:15:35;99638.56;;;16.06;100.00
6200;BME280;3133;43.214;27.906;2022-12-10T13:18:19;99644.44;;;16.15;100.00